Time;durP1;ratioP1;P1;durP2;ratioP2;P2;SDS_P1;SDS_P2;PMS_P1;PMS_P2;Temp;Humidity;BMP_temperature;BMP_pressure;BME280_temperature;BME280_humidity;BME280_pressure;Samples;Min_cycle;Max_cycle;Signal;HPM_P1;HPM_P2
2023/04/03 00:01:24;;;;;;;4.43;2.22;;;2.50;99.90;;;;;;5094751;28;20108;-80
2023/04/03 00:03:51;;;;;;;2.83;1.88;;;2.50;99.90;;;;;;5094674;28;20059;-82
2023/04/03 00:06:17;;;;;;;4.55;2.00;;;2.50;99.90;;;;;;5094566;28;20090;-82
2023/04/03 00:08:43;;;;;;;2.85;1.80;;;2.50;99.90;;;;;;5094573;28;20452;-81
2023/04/03 00:11:09;;;;;;;3.10;1.80;;;2.50;99.90;;;;;;5094473;28;20040;-79
2023/04/03 00:13:35;;;;;;;2.95;1.80;;;2.40;99.90;;;;;;5093253;28;20391;-80
2023/04/03 00:16:01;;;;;;;3.70;2.03;;;2.40;99.90;;;;;;5094955;28;20513;-82
2023/04/03 00:18:27;;;;;;;5.87;2.00;;;2.40;99.90;;;;;;5094555;28;20059;-78
2023/04/03 00:20:53;;;;;;;6.63;2.03;;;2.30;99.90;;;;;;5094248;28;20048;-80
2023/04/03 00:23:18;;;;;;;2.75;1.73;;;2.30;99.90;;;;;;5093263;28;20118;-80
2023/04/03 00:25:44;;;;;;;2.42;1.80;;;2.30;99.90;;;;;;5094262;28;20456;-81
2023/04/03 00:28:10;;;;;;;8.48;1.90;;;2.30;99.90;;;;;;5094150;28;20158;-80
2023/04/03 00:30:36;;;;;;;5.57;2.20;;;2.60;99.90;;;;;;5093382;28;20048;-79
2023/04/03 00:33:01;;;;;;;2.42;1.60;;;2.30;99.90;;;;;;5094009;28;20391;-80
2023/04/03 00:35:28;;;;;;;5.22;2.15;;;2.20;99.90;;;;;;5093078;28;20090;-81
2023/04/03 00:37:55;;;;;;;2.92;2.03;;;2.20;99.90;;;;;;5094169;28;20395;-79
2023/04/03 00:40:22;;;;;;;5.25;2.50;;;2.20;99.90;;;;;;5092913;28;20241;-79
2023/04/03 00:42:51;;;;;;;4.40;2.10;;;2.10;99.90;;;;;;5093732;28;20109;-80
2023/04/03 00:45:22;;;;;;;5.50;2.28;;;2.10;99.90;;;;;;5093888;28;20051;-81
2023/04/03 00:47:48;;;;;;;4.07;2.22;;;2.10;99.90;;;;;;5094051;28;20440;-80
2023/04/03 00:50:14;;;;;;;4.78;2.15;;;2.00;99.90;;;;;;5093809;28;20126;-82
2023/04/03 00:52:40;;;;;;;4.70;2.42;;;2.00;99.90;;;;;;5092950;28;20092;-79
2023/04/03 00:55:08;;;;;;;5.25;2.17;;;2.00;99.90;;;;;;5093685;28;20044;-82
2023/04/03 00:57:34;;;;;;;4.68;2.88;;;1.90;99.90;;;;;;5092487;28;20079;-79
2023/04/03 01:00:13;;;;;;;3.47;2.10;;;1.90;99.90;;;;;;5093739;28;20040;-81
2023/04/03 01:02:40;;;;;;;8.30;2.50;;;1.90;99.90;;;;;;5094110;28;20039;-81
2023/04/03 01:05:07;;;;;;;5.47;2.38;;;2.70;99.90;;;;;;5093726;28;20048;-79
2023/04/03 01:07:35;;;;;;;4.80;2.53;;;1.90;99.90;;;;;;5093708;28;20036;-80
2023/04/03 01:10:05;;;;;;;5.68;3.20;;;1.90;99.90;;;;;;5093635;28;20055;-79
2023/04/03 01:12:35;;;;;;;5.90;2.92;;;1.90;99.90;;;;;;5094114;28;20176;-81
2023/04/03 01:15:04;;;;;;;6.60;2.95;;;1.90;99.90;;;;;;5092347;28;20106;-80
2023/04/03 01:17:35;;;;;;;4.75;2.72;;;1.80;99.90;;;;;;5093520;28;20127;-80
2023/04/03 01:20:31;;;;;;;6.35;2.60;;;1.80;99.90;;;;;;5093529;28;20427;-82
2023/04/03 01:23:05;;;;;;;9.43;3.10;;;1.80;99.90;;;;;;5092351;28;20043;-81
2023/04/03 01:25:31;;;;;;;5.43;2.53;;;1.70;99.90;;;;;;5093667;28;20048;-82
2023/04/03 01:27:57;;;;;;;6.30;3.20;;;1.70;99.90;;;;;;5092235;28;20391;-80
2023/04/03 01:30:30;;;;;;;9.88;3.50;;;1.70;99.90;;;;;;5093530;28;20040;-82
2023/04/03 01:32:56;;;;;;;8.80;2.78;;;1.70;99.90;;;;;;5093456;28;20388;-80
2023/04/03 01:35:21;;;;;;;8.00;2.92;;;2.60;99.90;;;;;;5093373;28;20036;-81
2023/04/03 01:37:47;;;;;;;5.95;3.00;;;1.70;99.90;;;;;;5093881;28;20044;-79
2023/04/03 01:40:13;;;;;;;5.15;2.42;;;1.70;99.90;;;;;;5092152;28;20040;-81
2023/04/03 01:42:38;;;;;;;6.63;2.58;;;1.60;99.90;;;;;;5096763;28;20036;-82
2023/04/03 01:45:04;;;;;;;5.40;2.75;;;1.60;99.90;;;;;;5097372;28;20086;-82
2023/04/03 01:47:30;;;;;;;4.38;2.45;;;1.60;99.90;;;;;;5097332;28;20040;-81
2023/04/03 01:49:56;;;;;;;4.97;2.30;;;1.50;99.90;;;;;;5097742;28;20353;-80
2023/04/03 01:52:21;;;;;;;8.02;2.47;;;1.60;99.90;;;;;;5096053;28;20063;-81
2023/04/03 01:54:47;;;;;;;3.75;2.70;;;1.50;99.90;;;;;;5079563;28;20081;-82
2023/04/03 01:57:14;;;;;;;7.55;2.85;;;1.50;99.90;;;;;;5097089;28;20388;-80
2023/04/03 01:59:40;;;;;;;4.65;2.38;;;2.50;99.90;;;;;;5096751;28;20058;-82
2023/04/03 02:02:06;;;;;;;8.00;2.70;;;1.40;99.90;;;;;;5097133;28;20495;-80
2023/04/03 02:04:32;;;;;;;6.35;2.65;;;1.40;99.90;;;;;;5096986;28;20112;-83
2023/04/03 02:06:58;;;;;;;3.83;2.70;;;1.40;99.90;;;;;;5096973;28;20484;-80
2023/04/03 02:09:24;;;;;;;6.25;2.40;;;1.40;99.90;;;;;;5096915;28;20093;-81
2023/04/03 02:11:49;;;;;;;6.25;2.70;;;1.40;99.90;;;;;;5096815;28;20093;-81
2023/04/03 02:14:15;;;;;;;5.50;2.60;;;1.30;99.90;;;;;;5096932;28;20044;-82
2023/04/03 02:16:41;;;;;;;4.65;2.47;;;1.30;99.90;;;;;;5096554;28;20052;-82
2023/04/03 02:19:07;;;;;;;5.22;2.60;;;1.30;99.90;;;;;;5096686;28;20044;-78
2023/04/03 02:21:32;;;;;;;5.70;2.58;;;1.30;99.90;;;;;;5096275;28;20080;-80
2023/04/03 02:23:58;;;;;;;6.53;2.40;;;1.20;99.90;;;;;;5095394;28;20117;-80
2023/04/03 02:26:24;;;;;;;5.28;2.90;;;1.20;99.90;;;;;;5096784;28;20051;-78
2023/04/03 02:28:50;;;;;;;5.57;2.92;;;1.20;99.90;;;;;;5096314;28;20052;-80
2023/04/03 02:31:16;;;;;;;7.10;3.33;;;1.20;99.90;;;;;;5096449;28;20046;-78
2023/04/03 02:33:41;;;;;;;9.10;3.17;;;1.10;99.90;;;;;;5095870;28;20131;-81
2023/04/03 02:36:07;;;;;;;5.30;2.50;;;1.10;99.90;;;;;;5095331;28;20043;-80
2023/04/03 02:38:34;;;;;;;6.57;3.10;;;1.10;99.90;;;;;;5096037;28;20522;-80
2023/04/03 02:41:05;;;;;;;;;;;1.10;99.90;;;;;;5096677;28;20149;-81
2023/04/03 02:43:30;;;;;;;5.90;3.05;;;1.10;99.90;;;;;;5096277;28;19924;-80
2023/04/03 02:45:56;;;;;;;6.70;3.00;;;1.00;99.90;;;;;;5096319;28;20052;-80
2023/04/03 02:48:22;;;;;;;6.25;2.95;;;1.00;99.90;;;;;;5096001;28;20517;-81
2023/04/03 02:50:48;;;;;;;8.48;3.33;;;1.00;99.90;;;;;;5078213;28;20484;-79
2023/04/03 02:53:15;;;;;;;6.95;3.33;;;1.00;99.90;;;;;;5094089;28;20054;-80
2023/04/03 02:55:40;;;;;;;7.97;3.28;;;1.00;99.90;;;;;;5095036;28;20052;-79
2023/04/03 02:58:06;;;;;;;10.93;3.33;;;1.00;99.90;;;;;;5096086;28;20047;-81
2023/04/03 03:00:32;;;;;;;7.10;3.25;;;1.40;99.90;;;;;;5095826;28;20040;-81
2023/04/03 03:02:57;;;;;;;4.15;2.80;;;0.90;99.90;;;;;;5094781;28;20044;-79
2023/04/03 03:05:23;;;;;;;6.32;3.35;;;0.90;99.90;;;;;;5096379;28;20044;-79
2023/04/03 03:07:48;;;;;;;8.20;3.17;;;0.90;99.90;;;;;;5095852;28;20076;-81
2023/04/03 03:10:14;;;;;;;7.32;3.22;;;0.80;99.90;;;;;;5095763;28;20044;-80
2023/04/03 03:12:40;;;;;;;6.78;4.10;;;0.80;99.90;;;;;;5095382;28;20130;-78
2023/04/03 03:15:07;;;;;;;6.03;3.13;;;0.80;99.90;;;;;;5095606;28;20396;-78
2023/04/03 03:17:33;;;;;;;6.22;3.53;;;0.70;99.90;;;;;;5095579;28;20036;-81
2023/04/03 03:19:59;;;;;;;7.45;2.70;;;0.70;99.90;;;;;;5095480;28;20050;-81
2023/04/03 03:22:26;;;;;;;6.95;3.33;;;0.70;99.90;;;;;;5094325;28;20048;-81
2023/04/03 03:24:52;;;;;;;5.82;3.20;;;0.70;99.90;;;;;;5095526;28;20460;-79
2023/04/03 03:27:17;;;;;;;8.10;3.22;;;0.60;99.90;;;;;;5094739;28;20051;-80
2023/04/03 03:29:43;;;;;;;9.05;3.08;;;0.60;99.90;;;;;;5095585;28;20147;-79
2023/04/03 03:32:08;;;;;;;8.00;3.25;;;0.60;99.90;;;;;;5094803;28;20047;-79
2023/04/03 03:34:34;;;;;;;6.68;3.05;;;0.50;99.90;;;;;;5095553;28;20126;-80
2023/04/03 03:37:00;;;;;;;11.32;3.10;;;0.50;99.90;;;;;;5095251;28;20043;-79
2023/04/03 03:39:26;;;;;;;3.40;2.65;;;0.50;99.90;;;;;;5077323;28;20051;-81
2023/04/03 03:41:53;;;;;;;4.50;2.70;;;0.50;99.90;;;;;;5095052;28;20036;-82
2023/04/03 03:44:19;;;;;;;;;;;0.40;99.90;;;;;;5094517;28;20785;-82
2023/04/03 03:46:45;;;;;;;7.05;2.90;;;0.40;99.90;;;;;;5095024;28;19920;-80
2023/04/03 03:49:11;;;;;;;5.88;2.42;;;0.40;99.90;;;;;;5094963;28;20063;-80
2023/04/03 03:51:37;;;;;;;9.68;3.38;;;0.80;99.90;;;;;;5095330;28;20051;-80
2023/04/03 03:54:04;;;;;;;4.53;2.55;;;0.40;99.90;;;;;;5095267;28;20048;-80
2023/04/03 03:56:30;;;;;;;;;;;0.40;99.90;;;;;;5095572;28;20046;-81
2023/04/03 03:58:56;;;;;;;9.25;2.83;;;1.10;99.90;;;;;;5110588;28;20275;-81
2023/04/03 04:01:25;;;;;;;5.10;2.47;;;0.40;99.90;;;;;;5094709;28;20043;-80
2023/04/03 04:03:50;;;;;;;6.65;2.53;;;0.30;99.90;;;;;;5094565;28;20044;-81
2023/04/03 04:06:16;;;;;;;7.32;2.50;;;0.20;99.90;;;;;;5094649;28;20101;-82
2023/04/03 04:08:42;;;;;;;5.35;2.58;;;0.20;99.90;;;;;;5094575;28;20079;-80
2023/04/03 04:11:08;;;;;;;2.92;2.20;;;0.10;99.90;;;;;;5093467;28;20047;-81
2023/04/03 04:13:34;;;;;;;9.03;3.27;;;0.10;99.90;;;;;;5093489;28;20088;-82
2023/04/03 04:16:00;;;;;;;8.90;2.70;;;0.00;99.90;;;;;;5094418;28;20052;-81
2023/04/03 04:18:26;;;;;;;6.65;2.70;;;0.00;99.90;;;;;;5093316;28;20043;-80
2023/04/03 04:20:51;;;;;;;9.55;2.75;;;0.40;99.90;;;;;;5093836;28;20051;-81
2023/04/03 04:23:18;;;;;;;5.97;2.63;;;-0.10;99.90;;;;;;5094637;28;20090;-80
2023/04/03 04:25:45;;;;;;;5.18;2.55;;;-0.10;99.90;;;;;;5094310;28;20040;-81
2023/04/03 04:28:11;;;;;;;7.55;3.33;;;-0.20;99.90;;;;;;5093106;28;20051;-79
2023/04/03 04:30:37;;;;;;;11.88;2.90;;;-0.10;99.90;;;;;;5093081;28;20044;-80
2023/04/03 04:33:03;;;;;;;4.22;2.70;;;-0.10;99.90;;;;;;5094044;28;20089;-81
2023/04/03 04:35:29;;;;;;;5.40;2.40;;;-0.20;99.90;;;;;;5093384;28;20548;-81
2023/04/03 04:37:54;;;;;;;6.95;2.80;;;-0.20;99.90;;;;;;5093767;28;20083;-82
2023/04/03 04:40:20;;;;;;;7.25;2.90;;;0.10;99.90;;;;;;5094118;28;20084;-80
2023/04/03 04:42:46;;;;;;;8.20;2.67;;;-0.20;99.90;;;;;;5076128;28;20048;-82
2023/04/03 04:45:12;;;;;;;8.50;3.15;;;-0.20;99.90;;;;;;5094087;28;20040;-80
2023/04/03 04:47:37;;;;;;;5.88;2.78;;;-0.20;99.90;;;;;;5093986;28;20036;-80
2023/04/03 04:50:04;;;;;;;8.93;3.35;;;-0.20;99.90;;;;;;5093672;28;20056;-78
2023/04/03 04:52:29;;;;;;;4.47;2.70;;;-0.20;99.90;;;;;;5093472;28;20464;-79
2023/04/03 04:54:55;;;;;;;6.72;2.75;;;-0.30;99.90;;;;;;5094170;28;20285;-79
2023/04/03 04:57:21;;;;;;;4.78;2.70;;;-0.30;99.90;;;;;;5092747;28;20545;-79
2023/04/03 04:59:46;;;;;;;11.35;3.17;;;-0.30;99.90;;;;;;5093474;28;20043;-79
2023/04/03 05:02:12;;;;;;;6.97;2.78;;;0.10;99.90;;;;;;5093676;28;20043;-80
2023/04/03 05:04:38;;;;;;;5.25;2.50;;;-0.30;99.90;;;;;;5093566;28;20090;-80
2023/04/03 05:07:03;;;;;;;3.85;2.42;;;-0.30;99.90;;;;;;5094030;28;20043;-83
2023/04/03 05:09:29;;;;;;;5.05;2.85;;;-0.30;99.90;;;;;;5076071;28;20044;-80
2023/04/03 05:11:56;;;;;;;4.85;2.50;;;-0.10;99.90;;;;;;5092887;28;20050;-80
2023/04/03 05:14:21;;;;;;;7.57;2.75;;;-0.30;99.90;;;;;;5093804;28;20036;-83
2023/04/03 05:16:47;;;;;;;6.28;2.78;;;-0.30;99.90;;;;;;5093205;28;20158;-80
2023/04/03 05:19:13;;;;;;;7.22;2.72;;;-0.40;99.90;;;;;;5093308;28;20452;-80
2023/04/03 05:21:39;;;;;;;5.50;2.50;;;-0.40;99.90;;;;;;5093242;28;20521;-80
2023/04/03 05:24:05;;;;;;;6.93;2.65;;;0.00;99.90;;;;;;5092357;28;20048;-79
2023/04/03 05:26:31;;;;;;;4.85;2.20;;;-0.40;99.90;;;;;;5093487;28;20403;-80
2023/04/03 05:28:57;;;;;;;4.97;2.25;;;-0.40;99.90;;;;;;5093866;28;20036;-80
2023/04/03 05:31:23;;;;;;;7.33;2.77;;;-0.40;99.90;;;;;;5093482;28;20044;-80
2023/04/03 05:33:49;;;;;;;4.55;3.13;;;-0.40;99.90;;;;;;5093483;28;20036;-81
2023/04/03 05:36:15;;;;;;;3.60;2.85;;;-0.40;99.90;;;;;;5093724;28;20040;-81
2023/04/03 05:38:41;;;;;;;6.32;2.70;;;0.00;99.90;;;;;;5092357;28;20495;-79
2023/04/03 05:41:06;;;;;;;3.95;2.83;;;-0.20;99.90;;;;;;5093192;28;20040;-80
2023/04/03 05:43:33;;;;;;;8.80;2.92;;;1.00;99.90;;;;;;5093413;28;20089;-79
2023/04/03 05:45:59;;;;;;;8.77;2.92;;;-0.20;99.90;;;;;;5093223;28;20044;-81
2023/04/03 05:48:25;;;;;;;4.97;2.67;;;-0.10;99.90;;;;;;5093453;28;20059;-79
2023/04/03 05:50:52;;;;;;;10.63;3.08;;;-0.10;99.90;;;;;;5093523;28;20040;-80
2023/04/03 05:53:29;;;;;;;9.68;3.70;;;-0.10;99.90;;;;;;5093554;28;20064;-80
2023/04/03 05:55:54;;;;;;;9.05;3.58;;;0.00;99.90;;;;;;5093388;28;20044;-78
2023/04/03 05:58:20;;;;;;;6.20;3.00;;;0.00;99.90;;;;;;5094304;28;20089;-79
2023/04/03 06:00:46;;;;;;;3.83;2.60;;;0.10;99.90;;;;;;5093086;28;20044;-80
2023/04/03 06:03:11;;;;;;;12.00;3.70;;;0.10;99.90;;;;;;5093205;28;20036;-81
2023/04/03 06:05:37;;;;;;;5.38;3.45;;;0.10;99.90;;;;;;5093060;28;20392;-80
2023/04/03 06:08:03;;;;;;;5.30;2.63;;;0.20;99.90;;;;;;5091792;28;20048;-79
2023/04/03 06:10:29;;;;;;;6.80;2.40;;;0.50;99.90;;;;;;5093261;28;20085;-81
2023/04/03 06:12:54;;;;;;;4.30;2.70;;;0.20;99.90;;;;;;5091771;28;20093;-80
2023/04/03 06:15:20;;;;;;;5.80;2.80;;;0.20;99.90;;;;;;5093076;28;20079;-82
2023/04/03 06:17:46;;;;;;;5.20;2.97;;;0.20;99.90;;;;;;5091777;28;20396;-80
2023/04/03 06:20:12;;;;;;;6.03;2.78;;;0.30;99.90;;;;;;5092838;28;20044;-80
2023/04/03 06:22:38;;;;;;;6.13;2.38;;;0.30;99.90;;;;;;5092941;28;20052;-78
2023/04/03 06:25:04;;;;;;;5.88;2.28;;;0.40;99.90;;;;;;5092904;28;20048;-78
2023/04/03 06:27:30;;;;;;;8.20;2.60;;;0.50;99.90;;;;;;5092627;28;20496;-79
2023/04/03 06:29:56;;;;;;;5.25;2.92;;;0.70;99.90;;;;;;5096150;28;20048;-80
2023/04/03 06:32:21;;;;;;;3.72;2.35;;;0.60;99.90;;;;;;5096535;28;20044;-76
2023/04/03 06:34:47;;;;;;;4.93;2.33;;;0.70;99.90;;;;;;5096293;28;20058;-79
2023/04/03 06:37:18;;;;;;;5.63;2.42;;;0.70;99.90;;;;;;5096607;28;20048;-79
2023/04/03 06:39:45;;;;;;;6.40;2.30;;;0.80;99.90;;;;;;5095969;28;20040;-76
2023/04/03 06:42:10;;;;;;;4.32;2.05;;;0.90;99.90;;;;;;5096192;28;20134;-76
2023/04/03 06:44:36;;;;;;;5.22;2.30;;;1.00;99.90;;;;;;5096148;28;20122;-76
2023/04/03 06:47:02;;;;;;;3.67;2.28;;;1.10;99.90;;;;;;5095257;28;20060;-75
2023/04/03 06:49:28;;;;;;;6.05;2.33;;;1.20;99.90;;;;;;5095711;28;20098;-79
2023/04/03 06:51:55;;;;;;;6.53;2.40;;;1.40;99.90;;;;;;5094794;28;20036;-83
2023/04/03 06:54:21;;;;;;;;;;;1.50;99.90;;;;;;5096482;28;20048;-78
2023/04/03 06:56:47;;;;;;;6.68;2.15;;;1.60;99.90;;;;;;5096049;28;19943;-81
2023/04/03 06:59:14;;;;;;;7.85;3.00;;;1.70;99.90;;;;;;5096074;28;20131;-79
2023/04/03 07:01:40;;;;;;;8.02;2.35;;;1.80;99.90;;;;;;5095795;28;20055;-84
2023/04/03 07:04:07;;;;;;;5.57;2.10;;;2.00;99.90;;;;;;5095092;28;20407;-78
2023/04/03 07:06:33;;;;;;;3.80;1.85;;;2.10;99.90;;;;;;5095844;28;20044;-82
2023/04/03 07:09:00;;;;;;;5.77;2.37;;;2.20;99.90;;;;;;5095934;28;20048;-81
2023/04/03 07:11:26;;;;;;;8.20;2.80;;;2.20;99.90;;;;;;5095851;28;20089;-82
2023/04/03 07:13:52;;;;;;;6.03;2.03;;;2.70;99.90;;;;;;5077989;28;20430;-81
2023/04/03 07:16:18;;;;;;;5.90;2.20;;;2.50;99.90;;;;;;5096432;28;20040;-83
2023/04/03 07:18:44;;;;;;;5.57;2.17;;;2.60;99.90;;;;;;5094809;28;20495;-78
2023/04/03 07:21:10;;;;;;;6.07;2.20;;;2.70;99.90;;;;;;5095445;28;20047;-79
2023/04/03 07:23:36;;;;;;;6.00;2.72;;;2.80;99.90;;;;;;5095264;28;20044;-77
2023/04/03 07:26:02;;;;;;;7.43;2.08;;;2.80;99.90;;;;;;5095554;28;20044;-79
2023/04/03 07:28:27;;;;;;;7.50;2.05;;;2.90;99.90;;;;;;5095128;28;20373;-80
2023/04/03 07:30:59;;;;;;;8.13;2.20;;;3.00;99.90;;;;;;5095977;28;20042;-77
2023/04/03 07:33:25;;;;;;;3.75;2.00;;;3.10;99.90;;;;;;5095450;28;20079;-81
2023/04/03 07:35:50;;;;;;;3.65;1.80;;;3.10;99.90;;;;;;5095082;28;20388;-82
2023/04/03 07:38:16;;;;;;;4.40;2.17;;;3.20;99.90;;;;;;5095284;28;20391;-78
2023/04/03 07:40:47;;;;;;;4.75;2.10;;;3.30;99.90;;;;;;5094655;28;20041;-81
2023/04/03 07:43:12;;;;;;;9.18;2.22;;;3.50;99.90;;;;;;5094092;28;20051;-80
2023/04/03 07:45:38;;;;;;;4.15;2.17;;;3.50;99.90;;;;;;5095010;28;20044;-78
2023/04/03 07:48:04;;;;;;;3.70;2.65;;;3.70;99.90;;;;;;5094752;28;20086;-78
2023/04/03 07:50:31;;;;;;;4.85;2.20;;;3.80;99.90;;;;;;5095389;28;20229;-87
2023/04/03 07:52:57;;;;;;;3.45;1.70;;;3.80;99.90;;;;;;5094112;28;20054;-79
2023/04/03 07:55:24;;;;;;;3.67;2.03;;;3.90;99.90;;;;;;5094807;28;20040;-78
2023/04/03 07:57:50;;;;;;;4.63;1.90;;;4.00;99.90;;;;;;5094718;28;20052;-76
2023/04/03 08:00:17;;;;;;;8.05;1.70;;;4.10;99.90;;;;;;5094914;28;20399;-78
2023/04/03 08:02:44;;;;;;;3.72;1.83;;;4.20;99.90;;;;;;5095056;28;20043;-78
2023/04/03 08:05:10;;;;;;;;;;;4.40;99.90;;;;;;5093993;28;20056;-79
2023/04/03 08:07:37;;;;;;;4.85;1.70;;;4.50;99.90;;;;;;5094939;28;19920;-78
2023/04/03 08:10:03;;;;;;;2.92;1.50;;;4.60;99.90;;;;;;5094691;28;20039;-81
2023/04/03 08:12:29;;;;;;;4.38;1.60;;;4.70;99.90;;;;;;5093577;28;20079;-79
2023/04/03 08:14:55;;;;;;;2.40;1.60;;;4.70;99.90;;;;;;5094558;28;20492;-80
2023/04/03 08:17:21;;;;;;;9.52;2.00;;;4.70;99.90;;;;;;5094729;28;20075;-78
2023/04/03 08:19:47;;;;;;;3.42;1.67;;;4.30;99.90;;;;;;5094357;28;20048;-77
2023/04/03 08:22:12;;;;;;;3.33;1.98;;;5.00;99.90;;;;;;5094144;28;20055;-81
2023/04/03 08:24:38;;;;;;;4.05;1.80;;;5.10;99.90;;;;;;5094351;28;20361;-78
2023/04/03 08:27:04;;;;;;;8.15;1.88;;;5.30;99.90;;;;;;5094253;28;20044;-79
2023/04/03 08:29:29;;;;;;;3.53;1.73;;;5.40;99.90;;;;;;5094616;28;20086;-78
2023/04/03 08:31:55;;;;;;;2.40;1.52;;;5.50;99.90;;;;;;5094204;28;20039;-80
2023/04/03 08:34:21;;;;;;;2.50;1.60;;;5.50;99.90;;;;;;5094361;28;20502;-81
2023/04/03 08:36:47;;;;;;;3.08;1.60;;;5.50;99.90;;;;;;5094693;28;20047;-74
2023/04/03 08:39:13;;;;;;;4.50;1.80;;;5.50;99.90;;;;;;5094067;28;20040;-78
2023/04/03 08:41:42;;;;;;;4.50;1.50;;;5.60;99.90;;;;;;5093892;28;20421;-79
2023/04/03 08:44:22;;;;;;;4.97;1.60;;;5.70;99.90;;;;;;5094019;28;20043;-78
2023/04/03 08:46:56;;;;;;;2.65;1.58;;;5.90;99.90;;;;;;5093208;28;20048;-79
2023/04/03 08:49:31;;;;;;;3.38;1.52;;;6.60;99.90;;;;;;5093766;28;20411;-79
2023/04/03 08:51:59;;;;;;;5.47;1.58;;;6.00;99.90;;;;;;5093016;28;20533;-78
2023/04/03 08:54:32;;;;;;;3.72;1.70;;;6.00;99.90;;;;;;5093656;28;20052;-78
2023/04/03 08:57:02;;;;;;;5.47;1.50;;;6.60;99.90;;;;;;5094370;28;20048;-80
2023/04/03 08:59:32;;;;;;;3.47;1.58;;;6.10;99.90;;;;;;5094164;28;20039;-79
2023/04/03 09:02:01;;;;;;;4.25;1.73;;;6.50;99.90;;;;;;5093777;28;20127;-77
2023/04/03 09:04:31;;;;;;;2.08;1.38;;;6.10;99.90;;;;;;5093618;28;20044;-79
2023/04/03 09:07:05;;;;;;;3.38;1.75;;;6.80;99.90;;;;;;5093447;28;20101;-79
2023/04/03 09:09:40;;;;;;;2.65;1.60;;;6.30;99.90;;;;;;5094181;28;20044;-78
2023/04/03 09:12:23;;;;;;;2.30;1.40;;;6.40;99.90;;;;;;5093923;28;20040;-78
2023/04/03 09:15:15;;;;;;;4.53;1.45;;;6.50;99.90;;;;;;5093843;28;20051;-79
2023/04/03 09:17:45;;;;;;;4.68;1.50;;;6.70;99.90;;;;;;5093605;28;20048;-79
2023/04/03 09:20:38;;;;;;;3.50;1.90;;;6.80;99.90;;;;;;5093854;28;20032;-76
2023/04/03 09:23:27;;;;;;;3.58;1.52;;;6.80;99.90;;;;;;5093240;28;20480;-75
2023/04/03 09:26:00;;;;;;;4.15;1.50;;;6.80;99.90;;;;;;5093454;28;20462;-77
2023/04/03 09:28:26;;;;;;;4.97;1.67;;;7.60;99.90;;;;;;5093485;28;20040;-78
2023/04/03 09:30:51;;;;;;;3.33;1.85;;;7.00;99.90;;;;;;5092135;28;20476;-76
2023/04/03 09:33:17;;;;;;;2.42;1.23;;;7.20;99.90;;;;;;5093530;28;20132;-76
2023/04/03 09:35:43;;;;;;;3.20;1.23;;;7.00;99.90;;;;;;5093408;28;20043;-76
2023/04/03 09:38:11;;;;;;;2.45;1.30;;;7.00;99.90;;;;;;5093309;28;20630;-76
2023/04/03 09:40:39;;;;;;;5.40;1.30;;;7.10;99.90;;;;;;5093249;28;20044;-78
2023/04/03 09:43:17;;;;;;;3.63;1.52;;;7.00;99.90;;;;;;5092174;28;20074;-78
2023/04/03 09:45:45;;;;;;;3.75;1.20;;;7.10;99.90;;;;;;5093229;28;20058;-78
2023/04/03 09:48:14;;;;;;;1.75;1.13;;;7.40;97.60;;;;;;5093203;28;20063;-76
2023/04/03 09:51:01;;;;;;;5.30;1.35;;;7.20;98.50;;;;;;5093237;28;20550;-78
2023/04/03 09:53:35;;;;;;;2.80;1.17;;;7.30;99.70;;;;;;5093287;28;20086;-77
2023/04/03 09:56:03;;;;;;;2.35;1.25;;;7.50;99.10;;;;;;5093135;28;20040;-76
2023/04/03 09:58:37;;;;;;;4.43;1.50;;;7.60;99.20;;;;;;5093183;28;20113;-76
2023/04/03 10:01:03;;;;;;;3.85;1.30;;;8.40;98.00;;;;;;5093153;28;20043;-76
2023/04/03 10:03:32;;;;;;;2.73;1.20;;;7.70;98.00;;;;;;5095812;28;20106;-79
2023/04/03 10:05:58;;;;;;;2.97;1.27;;;7.60;95.90;;;;;;5096997;28;20044;-76
2023/04/03 10:08:34;;;;;;;2.72;1.10;;;8.20;97.30;;;;;;5097039;28;20046;-79
2023/04/03 10:11:10;;;;;;;1.77;1.10;;;7.70;98.10;;;;;;5096966;28;20087;-76
2023/04/03 10:13:48;;;;;;;3.47;1.33;;;7.80;97.10;;;;;;5096674;28;20377;-77
2023/04/03 10:16:29;;;;;;;2.30;1.30;;;8.40;97.40;;;;;;5096687;28;20109;-78
2023/04/03 10:19:07;;;;;;;3.30;1.58;;;8.10;98.90;;;;;;5095811;28;20040;-77
2023/04/03 10:21:44;;;;;;;2.90;1.52;;;8.10;97.60;;;;;;5096905;28;20468;-78
2023/04/03 10:24:38;;;;;;;2.40;1.40;;;8.30;98.80;;;;;;5096448;28;20052;-76
2023/04/03 10:27:20;;;;;;;3.90;1.60;;;8.40;96.80;;;;;;5096633;28;20507;-79
2023/04/03 10:30:19;;;;;;;1.88;1.00;;;8.40;94.90;;;;;;5096591;28;20113;-83
2023/04/03 10:33:11;;;;;;;2.10;1.23;;;8.40;96.30;;;;;;5096703;28;20044;-81
2023/04/03 10:35:53;;;;;;;1.67;1.25;;;8.50;96.40;;;;;;5094156;28;20509;-79
2023/04/03 10:38:21;;;;;;;2.45;1.20;;;8.60;97.10;;;;;;5096490;28;20391;-80
2023/04/03 10:41:17;;;;;;;6.05;1.30;;;8.60;96.80;;;;;;5095121;28;20075;-82
2023/04/03 10:44:05;;;;;;;3.70;1.17;;;8.70;96.90;;;;;;5072368;28;20133;-81
2023/04/03 10:46:31;;;;;;;;;;;8.70;96.40;;;;;;5096803;28;20044;-77
2023/04/03 10:49:09;;;;;;;2.92;1.10;;;8.90;96.20;;;;;;5096011;28;19927;-79
2023/04/03 10:52:30;;;;;;;1.73;1.10;;;8.90;95.40;;;;;;5096043;28;20607;-84
2023/04/03 10:55:07;;;;;;;4.75;1.40;;;8.90;94.70;;;;;;5049521;28;20527;-81
2023/04/03 10:57:33;;;;;;;3.85;1.20;;;8.80;95.60;;;;;;5095911;28;20048;-78
2023/04/03 11:00:08;;;;;;;3.00;1.25;;;8.80;95.20;;;;;;5095727;28;20143;-77
2023/04/03 11:02:56;;;;;;;2.97;1.30;;;8.90;94.10;;;;;;5096199;28;20036;-82
2023/04/03 11:05:34;;;;;;;1.35;1.08;;;9.00;93.50;;;;;;5094663;28;20130;-80
2023/04/03 11:08:05;;;;;;;3.70;1.23;;;8.90;94.00;;;;;;5096960;28;20051;-79
2023/04/03 11:10:45;;;;;;;1.92;1.20;;;9.20;94.70;;;;;;5096018;28;20036;-79
2023/04/03 11:13:43;;;;;;;3.53;1.20;;;8.90;96.10;;;;;;5096021;28;20044;-80
2023/04/03 11:16:12;;;;;;;1.80;1.20;;;9.00;95.70;;;;;;5083620;28;20059;-85
2023/04/03 11:18:42;;;;;;;4.72;1.30;;;9.00;94.70;;;;;;5095403;28;20076;-81
2023/04/03 11:21:24;;;;;;;4.20;1.30;;;8.90;94.70;;;;;;5094672;28;20046;-79
2023/04/03 11:23:51;;;;;;;2.80;1.20;;;9.10;95.40;;;;;;5095765;28;20051;-80
2023/04/03 11:26:25;;;;;;;2.17;1.30;;;9.10;94.90;;;;;;5094541;28;20051;-79
2023/04/03 11:29:00;;;;;;;2.25;1.30;;;9.80;95.60;;;;;;5095495;28;20043;-79
2023/04/03 11:31:50;;;;;;;4.10;1.23;;;9.10;96.30;;;;;;5095601;28;20075;-79
2023/04/03 11:34:44;;;;;;;3.10;1.40;;;9.30;96.00;;;;;;5095337;28;20391;-80
2023/04/03 11:37:44;;;;;;;2.15;1.20;;;9.90;97.40;;;;;;5093189;28;20095;-80
2023/04/03 11:40:21;;;;;;;3.53;1.38;;;9.60;94.40;;;;;;5095448;28;20518;-79
2023/04/03 11:42:51;;;;;;;3.08;1.30;;;9.60;95.40;;;;;;5094518;28;20044;-80
2023/04/03 11:45:29;;;;;;;2.70;1.20;;;10.10;95.80;;;;;;5097044;28;20058;-78
2023/04/03 11:47:58;;;;;;;3.35;1.40;;;9.70;94.00;;;;;;5095385;28;20083;-78
2023/04/03 11:50:43;;;;;;;1.65;1.10;;;9.60;94.10;;;;;;5096567;28;20480;-79
2023/04/03 11:53:12;;;;;;;3.05;1.75;;;9.70;93.40;;;;;;5093913;28;20081;-81
2023/04/03 11:55:50;;;;;;;2.85;1.25;;;9.80;94.20;;;;;;5098164;28;20443;-81
2023/04/03 11:58:22;;;;;;;4.20;1.52;;;9.80;94.40;;;;;;5095439;28;20505;-80
2023/04/03 12:00:49;;;;;;;1.77;1.10;;;10.00;93.50;;;;;;5094954;28;20040;-78
2023/04/03 12:03:42;;;;;;;1.98;1.15;;;10.00;94.70;;;;;;5095227;28;20047;-78
2023/04/03 12:06:09;;;;;;;4.35;1.30;;;9.80;93.60;;;;;;5071969;28;20055;-81
2023/04/03 12:08:47;;;;;;;5.18;1.40;;;9.90;93.20;;;;;;5094589;28;20044;-78
2023/04/03 12:11:12;;;;;;;2.90;1.38;;;9.90;93.70;;;;;;5094793;28;20047;-80
2023/04/03 12:13:56;;;;;;;2.85;1.23;;;10.10;95.20;;;;;;5094706;28;20055;-78
2023/04/03 12:16:26;;;;;;;2.25;1.10;;;9.90;95.00;;;;;;5094402;28;20558;-78
2023/04/03 12:18:52;;;;;;;2.53;1.13;;;9.90;93.40;;;;;;5094497;28;20185;-78
2023/04/03 12:21:38;;;;;;;3.42;1.30;;;9.90;94.10;;;;;;5094384;28;20095;-78
2023/04/03 12:24:12;;;;;;;5.68;1.25;;;10.00;94.00;;;;;;5062966;28;20062;-79
2023/04/03 12:27:04;;;;;;;3.08;1.50;;;10.10;94.10;;;;;;5094364;28;20075;-79
2023/04/03 12:29:29;;;;;;;3.45;1.55;;;10.10;94.00;;;;;;5065383;28;20427;-78
2023/04/03 12:32:17;;;;;;;3.28;1.40;;;10.20;94.10;;;;;;5092625;28;20052;-78
2023/04/03 12:35:06;;;;;;;4.57;1.55;;;10.40;94.00;;;;;;5093814;28;20044;-78
2023/04/03 12:38:08;;;;;;;4.38;1.60;;;10.30;93.40;;;;;;5094230;28;20055;-76
2023/04/03 12:40:49;;;;;;;3.42;1.50;;;10.40;95.60;;;;;;5093806;28;20403;-77
2023/04/03 12:43:20;;;;;;;1.75;1.05;;;10.50;94.70;;;;;;5093848;28;20055;-77
2023/04/03 12:46:02;;;;;;;2.72;1.48;;;10.50;94.00;;;;;;5093809;28;20047;-77
2023/04/03 12:48:31;;;;;;;2.78;1.40;;;10.60;93.60;;;;;;5093528;28;20096;-79
2023/04/03 12:50:59;;;;;;;4.57;1.20;;;10.60;93.10;;;;;;5093588;28;20479;-78
2023/04/03 12:53:33;;;;;;;1.85;1.27;;;10.60;93.00;;;;;;5093666;28;20032;-76
2023/04/03 12:56:18;;;;;;;3.08;1.45;;;10.60;93.10;;;;;;5093799;28;20157;-76
2023/04/03 12:58:44;;;;;;;2.97;1.40;;;10.80;93.60;;;;;;5092560;28;20040;-78
2023/04/03 13:01:11;;;;;;;4.63;1.23;;;10.60;92.80;;;;;;5093708;28;20105;-78
2023/04/03 13:03:44;;;;;;;2.65;1.13;;;10.70;93.00;;;;;;5109517;28;20048;-77
2023/04/03 13:06:23;;;;;;;2.33;1.40;;;10.50;92.60;;;;;;5093513;28;20073;-76
2023/04/03 13:08:51;;;;;;;2.45;1.33;;;10.70;92.70;;;;;;5093659;28;20130;-76
2023/04/03 13:11:18;;;;;;;3.58;1.20;;;10.40;93.80;;;;;;5093386;28;20044;-76